createdAt,value
2022-09-10T00:00:44.434Z,100.00
2022-09-10T00:05:51.486Z,100.00
2022-09-10T00:11:05.128Z,100.00
2022-09-10T00:16:11.092Z,100.00
2022-09-10T00:21:17.499Z,100.00
2022-09-10T00:26:29.318Z,100.00
2022-09-10T00:31:34.739Z,100.00
2022-09-10T00:36:43.897Z,100.00
2022-09-10T00:41:48.079Z,100.00
2022-09-10T00:46:51.605Z,100.00
2022-09-10T00:51:54.422Z,100.00
2022-09-10T00:57:02.556Z,100.00
2022-09-10T01:02:07.258Z,100.00
2022-09-10T01:07:29.299Z,100.00
2022-09-10T01:12:49.359Z,100.00
2022-09-10T01:18:22.266Z,100.00
2022-09-10T01:23:39.687Z,100.00
2022-09-10T01:29:14.880Z,100.00
2022-09-10T01:34:22.421Z,100.00
2022-09-10T01:39:27.446Z,100.00
2022-09-10T01:44:48.399Z,100.00
2022-09-10T01:50:19.443Z,100.00
2022-09-10T01:55:30.058Z,100.00
2022-09-10T02:00:36.959Z,100.00
2022-09-10T02:05:42.248Z,100.00
2022-09-10T02:10:52.825Z,100.00
2022-09-10T02:15:59.911Z,100.00
2022-09-10T02:21:09.166Z,100.00
2022-09-10T02:26:12.062Z,100.00
2022-09-10T02:31:16.299Z,100.00
2022-09-10T02:36:21.080Z,100.00
2022-09-10T02:41:26.189Z,100.00
2022-09-10T02:46:32.830Z,100.00
2022-09-10T02:51:38.873Z,100.00
2022-09-10T02:56:43.304Z,100.00
2022-09-10T03:01:48.351Z,100.00
2022-09-10T03:06:53.521Z,100.00
2022-09-10T03:12:00.374Z,100.00
2022-09-10T03:17:03.119Z,100.00
2022-09-10T03:22:07.186Z,100.00
2022-09-10T03:27:12.144Z,100.00
2022-09-10T03:32:14.425Z,100.00
2022-09-10T03:37:16.910Z,100.00
2022-09-10T03:42:23.455Z,100.00
2022-09-10T03:47:27.761Z,100.00
2022-09-10T03:52:32.768Z,100.00
2022-09-10T03:57:34.617Z,100.00
2022-09-10T04:02:37.231Z,100.00
2022-09-10T04:07:39.427Z,100.00
2022-09-10T04:12:41.219Z,100.00
2022-09-10T04:17:54.997Z,100.00
2022-09-10T04:23:02.991Z,100.00
2022-09-10T04:28:11.724Z,100.00
2022-09-10T04:33:19.872Z,100.00
2022-09-10T04:38:23.512Z,100.00
2022-09-10T04:43:29.412Z,100.00
2022-09-10T04:48:37.131Z,100.00
2022-09-10T04:53:40.828Z,100.00
2022-09-10T04:58:46.796Z,100.00
2022-09-10T05:03:51.677Z,100.00
2022-09-10T05:08:58.944Z,100.00
2022-09-10T05:14:07.872Z,100.00
2022-09-10T05:19:17.650Z,100.00
2022-09-10T05:24:35.762Z,100.00
2022-09-10T05:29:45.431Z,100.00
2022-09-10T05:34:48.921Z,100.00
2022-09-10T05:39:51.190Z,100.00
2022-09-10T05:44:54.375Z,100.00
2022-09-10T05:50:02.613Z,100.00
2022-09-10T05:55:11.373Z,100.00
2022-09-10T06:00:15.761Z,100.00
2022-09-10T06:05:25.075Z,100.00
2022-09-10T06:10:30.639Z,100.00
2022-09-10T06:15:35.481Z,100.00
2022-09-10T06:20:37.640Z,100.00
2022-09-10T06:25:41.799Z,100.00
2022-09-10T06:30:46.601Z,100.00
2022-09-10T06:35:55.750Z,100.00
2022-09-10T06:41:04.872Z,100.00
2022-09-10T06:46:51.189Z,100.00
2022-09-10T06:51:45.708Z,100.00
2022-09-10T06:56:49.406Z,100.00
2022-09-10T07:01:51.585Z,100.00
2022-09-10T07:06:57.794Z,100.00
2022-09-10T07:12:09.480Z,100.00
2022-09-10T07:17:21.071Z,100.00
2022-09-10T07:22:25.988Z,100.00
2022-09-10T07:27:30.192Z,100.00
2022-09-10T07:32:36.724Z,100.00
2022-09-10T07:37:49.037Z,100.00
2022-09-10T07:42:52.479Z,100.00
2022-09-10T07:47:56.269Z,100.00
2022-09-10T07:53:01.433Z,100.00
2022-09-10T07:58:08.233Z,100.00
2022-09-10T08:03:18.267Z,100.00
2022-09-10T08:08:27.301Z,100.00
2022-09-10T08:13:35.309Z,100.00
2022-09-10T08:18:38.634Z,100.00
2022-09-10T08:23:54.015Z,100.00
2022-09-10T08:28:58.630Z,100.00
2022-09-10T08:34:06.627Z,100.00
2022-09-10T08:39:15.380Z,100.00
2022-09-10T08:44:40.146Z,100.00
2022-09-10T08:49:44.966Z,100.00
2022-09-10T08:55:02.656Z,100.00
2022-09-10T09:00:10.392Z,100.00
2022-09-10T09:05:20.180Z,100.00
2022-09-10T09:10:24.813Z,100.00
2022-09-10T09:15:33.587Z,100.00
2022-09-10T09:20:57.298Z,100.00
2022-09-10T09:26:10.972Z,99.88
2022-09-10T09:31:18.391Z,98.20
2022-09-10T09:36:31.177Z,98.70
2022-09-10T09:41:55.814Z,99.12
2022-09-10T09:47:00.544Z,99.55
2022-09-10T09:52:19.707Z,99.48
2022-09-10T09:57:22.748Z,100.00
2022-09-10T10:02:30.460Z,99.05
2022-09-10T10:07:38.669Z,98.12
2022-09-10T10:12:43.118Z,97.58
2022-09-10T10:17:47.284Z,97.62
2022-09-10T10:22:54.191Z,97.29
2022-09-10T10:28:03.542Z,96.62
2022-09-10T10:33:05.287Z,95.07
2022-09-10T10:38:34.395Z,94.61
2022-09-10T10:44:23.498Z,95.04
2022-09-10T10:49:47.280Z,94.54
2022-09-10T10:55:03.906Z,93.91
2022-09-10T11:00:13.408Z,92.73
2022-09-10T11:05:25.765Z,92.22
2022-09-10T11:10:47.965Z,91.70
2022-09-10T11:15:53.711Z,91.53
2022-09-10T11:21:37.617Z,90.78
2022-09-10T11:26:54.734Z,90.52
2022-09-10T11:32:00.799Z,90.01
2022-09-10T11:37:05.617Z,89.68
2022-09-10T11:42:19.719Z,89.11
2022-09-10T11:47:31.384Z,87.60
2022-09-10T11:52:35.173Z,84.39
2022-09-10T11:57:55.770Z,82.23
2022-09-10T12:03:25.701Z,79.49
2022-09-10T12:09:03.530Z,78.13
2022-09-10T12:14:15.093Z,78.20
2022-09-10T12:19:40.671Z,79.33
2022-09-10T12:25:00.755Z,79.21
2022-09-10T12:30:25.464Z,78.06
2022-09-10T12:35:35.467Z,76.34
2022-09-10T12:40:49.718Z,75.71
2022-09-10T12:46:06.284Z,75.96
2022-09-10T12:51:23.646Z,76.15
2022-09-10T12:56:40.028Z,73.52
2022-09-10T13:01:48.998Z,74.82
2022-09-10T13:06:59.412Z,75.43
2022-09-10T13:12:14.897Z,74.41
2022-09-10T13:17:35.503Z,75.80
2022-09-10T13:22:55.368Z,74.72
2022-09-10T13:28:28.533Z,73.59
2022-09-10T13:33:37.028Z,73.33
2022-09-10T13:39:16.633Z,74.51
2022-09-10T13:44:39.916Z,74.79
2022-09-10T13:49:55.716Z,76.16
2022-09-10T13:55:01.417Z,70.12
2022-09-10T14:00:08.519Z,70.05
2022-09-10T14:05:31.040Z,66.75
2022-09-10T14:10:48.664Z,64.46
2022-09-10T14:15:55.256Z,62.51
2022-09-10T14:21:04.791Z,60.08
2022-09-10T14:26:15.256Z,60.85
2022-09-10T14:31:30.034Z,59.95
2022-09-10T14:36:34.356Z,58.01
2022-09-10T14:41:36.363Z,57.28
2022-09-10T14:47:05.677Z,56.47
2022-09-10T14:52:08.091Z,57.44
2022-09-10T14:57:15.390Z,56.89
2022-09-10T15:02:20.157Z,55.84
2022-09-10T15:07:23.750Z,55.37
2022-09-10T15:12:28.090Z,54.40
2022-09-10T15:17:36.144Z,52.15
2022-09-10T15:22:40.102Z,52.17
2022-09-10T15:27:47.182Z,51.51
2022-09-10T15:32:54.439Z,50.06
2022-09-10T15:37:56.528Z,52.27
2022-09-10T15:43:00.349Z,51.81
2022-09-10T15:48:03.692Z,50.66
2022-09-10T15:53:09.300Z,50.27
2022-09-10T15:58:16.476Z,52.44
2022-09-10T16:03:18.552Z,55.15
2022-09-10T16:08:20.269Z,57.60
2022-09-10T16:13:22.224Z,59.61
2022-09-10T16:18:24.211Z,61.25
2022-09-10T16:23:31.294Z,62.82
2022-09-10T16:28:38.657Z,64.10
2022-09-10T16:33:43.420Z,65.28
2022-09-10T16:38:55.151Z,66.31
2022-09-10T16:44:00.557Z,67.20
2022-09-10T16:49:02.693Z,68.83
2022-09-10T16:54:10.009Z,69.66
2022-09-10T16:59:17.820Z,70.32
2022-09-10T17:04:28.784Z,71.19
2022-09-10T17:09:30.980Z,71.60
2022-09-10T17:14:33.319Z,72.99
2022-09-10T17:19:34.957Z,73.96
2022-09-10T17:24:36.682Z,74.30
2022-09-10T17:29:38.618Z,75.32
2022-09-10T17:34:40.326Z,75.72
2022-09-10T17:39:42.119Z,75.48
2022-09-10T17:44:47.150Z,76.78
2022-09-10T17:49:52.120Z,75.92
2022-09-10T17:54:54.011Z,76.69
2022-09-10T17:59:58.222Z,78.16
2022-09-10T18:05:00.727Z,79.75
2022-09-10T18:10:09.943Z,80.61
2022-09-10T18:15:11.743Z,81.30
2022-09-10T18:20:18.051Z,81.68
2022-09-10T18:25:25.902Z,82.86
2022-09-10T18:30:32.518Z,83.29
2022-09-10T18:35:36.753Z,83.21
2022-09-10T18:40:43.344Z,83.63
2022-09-10T18:45:46.085Z,84.99
2022-09-10T18:50:50.771Z,85.67
2022-09-10T18:56:00.047Z,85.88
2022-09-10T19:01:11.185Z,86.65
2022-09-10T19:06:20.783Z,86.54
2022-09-10T19:11:24.515Z,86.18
2022-09-10T19:16:30.915Z,86.77
2022-09-10T19:21:35.432Z,86.71
2022-09-10T19:26:37.408Z,87.96
2022-09-10T19:31:47.104Z,88.83
2022-09-10T19:36:52.015Z,89.75
2022-09-10T19:41:56.759Z,89.63
2022-09-10T19:46:58.865Z,89.73
2022-09-10T19:52:04.368Z,89.73
2022-09-10T19:57:08.580Z,90.40
2022-09-10T20:02:12.934Z,91.57
2022-09-10T20:07:15.267Z,91.64
2022-09-10T20:12:22.665Z,91.57
2022-09-10T20:17:26.676Z,92.98
2022-09-10T20:22:30.982Z,93.46
2022-09-10T20:27:35.648Z,92.56
2022-09-10T20:32:37.390Z,90.94
2022-09-10T20:37:39.214Z,91.38
2022-09-10T20:42:41.284Z,90.79
2022-09-10T20:47:45.246Z,91.91
2022-09-10T20:52:50.655Z,90.70
2022-09-10T20:57:54.686Z,90.63
2022-09-10T21:02:59.900Z,90.08
2022-09-10T21:08:03.682Z,90.69
2022-09-10T21:13:05.398Z,90.27
2022-09-10T21:18:09.607Z,90.56
2022-09-10T21:23:11.286Z,90.48
2022-09-10T21:28:12.933Z,90.81
2022-09-10T21:33:17.405Z,91.04
2022-09-10T21:38:21.844Z,90.00
2022-09-10T21:43:29.535Z,90.48
2022-09-10T21:48:36.241Z,90.69
2022-09-10T21:53:41.600Z,90.53
2022-09-10T21:58:45.010Z,90.46
2022-09-10T22:03:47.445Z,90.04
2022-09-10T22:08:54.969Z,90.84
2022-09-10T22:14:02.829Z,91.48
2022-09-10T22:19:09.528Z,91.59
2022-09-10T22:24:14.954Z,92.07
2022-09-10T22:29:18.624Z,93.34
2022-09-10T22:34:23.104Z,93.16
2022-09-10T22:39:25.548Z,92.82
2022-09-10T22:44:31.849Z,92.45
2022-09-10T22:49:34.285Z,92.23
2022-09-10T22:54:36.058Z,91.88
2022-09-10T22:59:40.421Z,92.70
2022-09-10T23:04:44.524Z,92.44
2022-09-10T23:09:48.205Z,92.56
2022-09-10T23:14:49.917Z,92.32
2022-09-10T23:19:52.307Z,92.27
2022-09-10T23:24:54.008Z,91.96
2022-09-10T23:29:56.689Z,92.21
2022-09-10T23:35:01.428Z,92.04
2022-09-10T23:40:11.916Z,91.94
2022-09-10T23:45:16.170Z,92.04
2022-09-10T23:50:19.883Z,91.83
2022-09-10T23:55:21.592Z,92.85
